| time (UTC) | temp F | wind direction | speed knots | gust knots | rain 1hr in | rain 24hr in | rain mn in | humidity % | barometer mb |
| 20260508213014 | 78 | 275 | 1.7 | 10.4 | 0.00 | 0.00 | 0.00 | 21 | 1007.9 |
| 20260508211505 | 78 | 309 | 0.9 | 7.0 | 0.00 | 0.00 | 0.00 | 20 | 1008.1 |
| 20260508210002 | 78 | 40 | 0.9 | 7.0 | 0.00 | 0.00 | 0.00 | 21 | 1008.2 |
| 20260508204503 | 77 | 290 | 4.3 | 15.6 | 0.00 | 0.00 | 0.00 | 19 | 1008.4 |
| 20260508203104 | 77 | 323 | 0.9 | 6.1 | 0.00 | 0.00 | 0.00 | 20 | 1008.5 |
| 20260508201559 | 77 | 70 | 0.9 | 6.1 | 0.00 | 0.00 | 0.00 | 22 | 1008.6 |
| 20260508200100 | 76 | 351 | 0.9 | 9.6 | 0.00 | 0.00 | 0.00 | 22 | 1008.7 |
| 20260508194554 | 76 | 241 | 2.6 | 6.1 | 0.00 | 0.00 | 0.00 | 22 | 1008.7 |
| 20260508193057 | 75 | 305 | 0.9 | 5.2 | 0.00 | 0.00 | 0.00 | 26 | 1008.9 |
| 20260508191557 | 75 | 292 | 1.7 | 7.8 | 0.00 | 0.00 | 0.00 | 28 | 1009.1 |
| 20260508190052 | 75 | 207 | 0.9 | 9.6 | 0.00 | 0.00 | 0.00 | 26 | 1009.3 |
| 20260508184547 | 74 | 281 | 0.9 | 6.1 | 0.00 | 0.00 | 0.00 | 24 | 1009.5 |
| 20260508183045 | 73 | 294 | 1.7 | 7.0 | 0.00 | 0.00 | 0.00 | 24 | 1009.6 |
| 20260508181545 | 73 | 280 | 0.0 | 9.6 | 0.00 | 0.00 | 0.00 | 26 | 1009.7 |
| 20260508180044 | 73 | 267 | 0.9 | 7.8 | 0.00 | 0.00 | 0.00 | 25 | 1009.9 |
| 20260508174541 | 72 | 270 | 1.7 | 6.1 | 0.00 | 0.00 | 0.00 | 29 | 1009.9 |
| 20260508173041 | 72 | 217 | 1.7 | 7.8 | 0.00 | 0.00 | 0.00 | 32 | 1010.0 |
| 20260508171539 | 72 | 283 | 0.9 | 7.8 | 0.00 | 0.00 | 0.00 | 30 | 1009.8 |
| 20260508170036 | 71 | 279 | 0.0 | 6.1 | 0.00 | 0.00 | 0.00 | 31 | 1009.8 |
| 20260508164536 | 70 | 296 | 0.9 | 5.2 | 0.00 | 0.00 | 0.00 | 30 | 1009.8 |
| 20260508163030 | 69 | 267 | 1.7 | 5.2 | 0.00 | 0.00 | 0.00 | 33 | 1009.8 |
| 20260508161527 | 69 | 279 | 1.7 | 5.2 | 0.00 | 0.00 | 0.00 | 35 | 1009.8 |
| 20260508160032 | 69 | 296 | 2.6 | 6.1 | 0.00 | 0.00 | 0.00 | 33 | 1009.7 |
| 20260508154524 | 68 | 0.0 | 0.0 | 0.00 | 0.00 | 0.00 | 33 | 1009.7 | |
| 20260508153018 | 67 | 0.0 | 0.0 | 0.00 | 0.00 | 0.00 | 36 | 1009.6 | |
| 20260508151514 | 66 | 0.0 | 0.0 | 0.00 | 0.00 | 0.00 | 37 | 1009.6 | |
| 20260508150009 | 65 | 0.0 | 0.0 | 0.00 | 0.00 | 0.00 | 40 | 1009.5 | |
| 20260508144504 | 64 | 0.0 | 0.0 | 0.00 | 0.00 | 0.00 | 42 | 1009.4 | |
| 20260508143104 | 61 | 0.0 | 0.0 | 0.00 | 0.00 | 0.00 | 47 | 1009.4 | |
| 20260508141556 | 59 | 0.0 | 0.0 | 0.00 | 0.00 | 0.00 | 52 | 1009.3 | |
| 20260508140051 | 57 | 0.0 | 0.0 | 0.00 | 0.00 | 0.00 | 58 | 1009.2 | |
| 20260508134546 | 54 | 0.0 | 0.0 | 0.00 | 0.00 | 0.00 | 60 | 1009.0 | |
| 20260508133043 | 51 | 0.0 | 0.0 | 0.00 | 0.00 | 0.00 | 66 | 1008.8 | |
| 20260508131538 | 49 | 0.0 | 0.0 | 0.00 | 0.00 | 0.00 | 67 | 1008.5 | |
| 20260508130049 | 0 | 0.0 | 0.0 | 0.00 | 0.00 | 0.00 | 1008.4 | ||
| 20260508124530 | 0 | 0.0 | 0.0 | 0.00 | 0.00 | 0.00 | 1008.3 | ||
| 20260508123025 | 0 | 0.0 | 0.0 | 0.00 | 0.00 | 0.00 | 1008.2 | ||
| 20260508121521 | 0 | 0.0 | 0.0 | 0.00 | 0.00 | 0.00 | 1008.2 | ||
| 20260508120017 | 0 | 0.0 | 0.0 | 0.00 | 0.00 | 0.00 | 1008.3 | ||
| 20260508114512 | 0 | 0.0 | 0.0 | 0.00 | 0.00 | 0.00 | 1008.4 | ||
| 20260508113008 | 49 | 0.0 | 0.0 | 0.00 | 0.00 | 0.00 | 66 | 1008.4 | |
| 20260508111505 | 49 | 0.0 | 0.0 | 0.00 | 0.00 | 0.00 | 65 | 1008.4 | |
| 20260508110103 | 49 | 0.0 | 0.0 | 0.00 | 0.00 | 0.00 | 66 | 1008.4 | |
| 20260508104620 | 49 | 0.0 | 0.0 | 0.00 | 0.00 | 0.00 | 65 | 1008.4 | |
| 20260508103050 | 49 | 0.0 | 0.0 | 0.00 | 0.00 | 0.00 | 64 | 1008.2 | |
| 20260508101549 | 50 | 0.0 | 0.0 | 0.00 | 0.00 | 0.00 | 63 | 1008.2 | |
| 20260508100041 | 49 | 0.0 | 0.0 | 0.00 | 0.00 | 0.00 | 64 | 1008.1 | |
| 20260508094543 | 50 | 0.0 | 0.0 | 0.00 | 0.00 | 0.00 | 63 | 1008.0 | |
| 20260508093033 | 50 | 0.0 | 0.0 | 0.00 | 0.00 | 0.00 | 62 | 1007.9 | |
| 20260508091528 | 50 | 0.0 | 0.0 | 0.00 | 0.00 | 0.00 | 62 | 1007.8 | |
| 20260508090027 | 50 | 0.0 | 0.0 | 0.00 | 0.00 | 0.00 | 63 | 1007.8 | |
| 20260508084519 | 49 | 0.0 | 0.0 | 0.00 | 0.00 | 0.00 | 63 | 1007.9 | |
| 20260508083014 | 50 | 0.0 | 0.0 | 0.00 | 0.00 | 0.00 | 63 | 1008.0 | |
| 20260508081511 | 50 | 0.0 | 0.0 | 0.00 | 0.00 | 0.00 | 60 | 1007.9 | |
| 20260508080006 | 51 | 0.0 | 0.0 | 0.00 | 0.00 | 0.00 | 59 | 1007.9 | |
| 20260508074502 | 52 | 0.0 | 0.0 | 0.00 | 0.00 | 0.00 | 58 | 1007.8 | |
| 20260508073059 | 52 | 0.0 | 0.0 | 0.00 | 0.00 | 0.00 | 57 | 1007.7 | |
| 20260508071601 | 52 | 0.0 | 0.0 | 0.00 | 0.00 | 0.00 | 57 | 1007.7 | |
| 20260508070136 | 52 | 0.0 | 0.0 | 0.00 | 0.00 | 0.00 | 58 | 1007.6 | |
| 20260508064549 | 53 | 0.0 | 0.0 | 0.00 | 0.00 | 0.00 | 55 | 1007.6 | |
| 20260508063041 | 53 | 0.0 | 0.0 | 0.00 | 0.00 | 0.00 | 55 | 1007.8 | |
| 20260508061539 | 54 | 0.0 | 0.0 | 0.00 | 0.00 | 0.00 | 53 | 1007.7 | |
| 20260508060033 | 54 | 0.0 | 0.0 | 0.00 | 0.00 | 0.00 | 51 | 1007.7 | |
| 20260508054527 | 54 | 0.0 | 0.0 | 0.00 | 0.00 | 0.00 | 52 | 1007.6 | |
| 20260508053022 | 55 | 0.0 | 0.0 | 0.00 | 0.00 | 0.00 | 51 | 1007.5 | |
| 20260508051518 | 56 | 0.0 | 0.0 | 0.00 | 0.00 | 0.00 | 49 | 1007.4 | |
| 20260508050020 | 58 | 0.0 | 0.0 | 0.00 | 0.00 | 0.00 | 45 | 1007.4 | |
| 20260508044509 | 60 | 0.0 | 0.0 | 0.00 | 0.00 | 0.00 | 41 | 1007.4 | |
| 20260508043004 | 62 | 0.0 | 0.0 | 0.00 | 0.00 | 0.00 | 36 | 1007.3 | |
| 20260508041601 | 60 | 0.0 | 0.0 | 0.00 | 0.00 | 0.00 | 40 | 1007.4 | |
| 20260508040056 | 58 | 0.0 | 0.0 | 0.00 | 0.00 | 0.00 | 46 | 1007.3 | |
| 20260508034552 | 57 | 0.0 | 0.0 | 0.00 | 0.00 | 0.00 | 45 | 1007.1 | |
| 20260508033049 | 58 | 0.0 | 0.0 | 0.00 | 0.00 | 0.00 | 46 | 1007.1 | |
| 20260508031551 | 60 | 0.0 | 0.0 | 0.00 | 0.00 | 0.00 | 43 | 1007.0 | |
| 20260508030049 | 62 | 0.0 | 0.0 | 0.00 | 0.00 | 0.00 | 38 | 1006.7 | |
| 20260508024535 | 64 | 0.0 | 0.0 | 0.00 | 0.00 | 0.00 | 36 | 1006.8 | |
| 20260508023030 | 66 | 0.0 | 0.0 | 0.00 | 0.00 | 0.00 | 34 | 1006.7 | |
| 20260508021527 | 68 | 292 | 0.0 | 0.0 | 0.00 | 0.00 | 0.00 | 29 | 1006.7 |
| 20260508020025 | 71 | 292 | 0.0 | 0.0 | 0.00 | 0.00 | 0.00 | 28 | 1006.5 |
| 20260508014524 | 73 | 292 | 0.0 | 3.5 | 0.00 | 0.00 | 0.00 | 25 | 1006.6 |
| 20260508013022 | 76 | 286 | 0.0 | 3.5 | 0.00 | 0.00 | 0.00 | 21 | 1006.7 |
| 20260508011522 | 78 | 293 | 0.0 | 2.6 | 0.00 | 0.00 | 0.00 | 20 | 1006.7 |
| 20260508010025 | 79 | 284 | 0.0 | 1.7 | 0.00 | 0.00 | 0.00 | 20 | 1006.8 |
| 20260508004518 | 78 | 292 | 0.0 | 2.6 | 0.00 | 0.00 | 0.00 | 20 | 1006.9 |
| 20260508003015 | 77 | 240 | 0.0 | 3.5 | 0.00 | 0.00 | 0.00 | 21 | 1007.1 |
| 20260508001513 | 77 | 285 | 0.0 | 1.7 | 0.00 | 0.00 | 0.00 | 23 | 1007.2 |
| 20260508000012 | 74 | 286 | 0.0 | 0.9 | 0.00 | 0.00 | 0.00 | 24 | 1007.4 |
| 20260507234510 | 75 | 271 | 0.9 | 4.3 | 0.00 | 0.00 | 0.00 | 23 | 1007.6 |
| 20260507233009 | 75 | 309 | 0.0 | 7.0 | 0.00 | 0.00 | 0.00 | 23 | 1007.8 |
| 20260507231514 | 77 | 286 | 1.7 | 10.4 | 0.00 | 0.00 | 0.00 | 22 | 1008.0 |
| 20260507230004 | 76 | 303 | 0.9 | 4.3 | 0.00 | 0.00 | 0.00 | 25 | 1008.3 |
| 20260507224503 | 76 | 31 | 0.0 | 4.3 | 0.00 | 0.00 | 0.00 | 24 | 1008.7 |
| 20260507223059 | 76 | 42 | 0.0 | 3.5 | 0.00 | 0.00 | 0.00 | 24 | 1009.0 |
| 20260507221601 | 76 | 40 | 0.9 | 7.8 | 0.00 | 0.00 | 0.00 | 24 | 1009.1 |
| 20260507220057 | 75 | 271 | 4.3 | 11.3 | 0.00 | 0.00 | 0.00 | 24 | 1009.3 |
| 20260507214554 | 75 | 282 | 0.0 | 8.7 | 0.00 | 0.00 | 0.00 | 23 | 1009.4 |